createdAt,value
2019-06-08T00:01:25.609Z,10.25
2019-06-08T00:03:55.960Z,10.72
2019-06-08T00:06:25.997Z,11.55
2019-06-08T00:08:56.114Z,11.38
2019-06-08T00:11:26.154Z,11.43
2019-06-08T00:13:56.609Z,11.05
2019-06-08T00:16:26.641Z,10.43
2019-06-08T00:18:56.842Z,10.78
2019-06-08T00:21:26.947Z,11.93
2019-06-08T00:23:56.994Z,11.57
2019-06-08T00:26:27.116Z,12.05
2019-06-08T00:28:57.536Z,10.95
2019-06-08T00:31:27.606Z,11.18
2019-06-08T00:33:57.713Z,11.20
2019-06-08T00:36:27.772Z,11.60
2019-06-08T00:38:57.886Z,10.45
2019-06-08T00:41:28.329Z,11.55
2019-06-08T00:43:58.732Z,11.28
2019-06-08T00:46:28.779Z,11.25
2019-06-08T00:48:58.821Z,10.85
2019-06-08T00:51:30.012Z,11.83
2019-06-08T00:54:00.195Z,11.35
2019-06-08T00:56:30.242Z,10.35
2019-06-08T00:59:00.364Z,10.68
2019-06-08T01:01:30.883Z,10.98
2019-06-08T01:04:01.124Z,11.53
2019-06-08T01:06:31.235Z,10.93
2019-06-08T01:09:01.353Z,10.43
2019-06-08T01:11:33.118Z,11.05
2019-06-08T01:14:04.558Z,10.45
2019-06-08T01:16:35.033Z,11.05
2019-06-08T01:19:05.555Z,10.85
2019-06-08T01:21:35.679Z,10.80
2019-06-08T01:24:06.207Z,12.00
2019-06-08T01:26:36.314Z,10.35
2019-06-08T01:29:06.501Z,10.13
2019-06-08T01:31:36.626Z,10.78
2019-06-08T01:34:06.995Z,10.68
2019-06-08T01:36:37.035Z,10.70
2019-06-08T01:39:07.825Z,10.78
2019-06-08T01:41:38.014Z,10.88
2019-06-08T01:44:08.445Z,10.58
2019-06-08T01:46:38.766Z,12.53
2019-06-08T01:49:08.884Z,11.35
2019-06-08T01:51:39.361Z,11.33
2019-06-08T01:54:09.466Z,10.25
2019-06-08T01:56:39.665Z,10.70
2019-06-08T01:59:09.760Z,10.85
2019-06-08T02:01:39.799Z,10.43
2019-06-08T02:04:09.848Z,11.12
2019-06-08T02:06:40.301Z,10.53
2019-06-08T02:09:10.829Z,10.95
2019-06-08T02:11:40.894Z,11.12
2019-06-08T02:14:10.929Z,11.00
2019-06-08T02:16:41.418Z,11.05
2019-06-08T02:19:11.475Z,10.25
2019-06-08T02:21:41.587Z,11.45
2019-06-08T02:24:12.363Z,10.03
2019-06-08T02:26:42.471Z,10.60
2019-06-08T02:29:12.514Z,11.90
2019-06-08T02:31:42.925Z,11.88
2019-06-08T02:34:12.972Z,11.80
2019-06-08T02:36:44.187Z,10.78
2019-06-08T02:39:14.541Z,11.18
2019-06-08T02:41:44.589Z,10.68
2019-06-08T02:44:14.964Z,11.03
2019-06-08T02:46:45.061Z,10.03
2019-06-08T02:49:15.167Z,11.10
2019-06-08T02:51:46.463Z,10.88
2019-06-08T02:54:16.756Z,10.90
2019-06-08T02:56:49.438Z,11.45
2019-06-08T02:59:23.058Z,10.78
2019-06-08T03:01:55.482Z,10.72
2019-06-08T03:04:27.430Z,10.70
2019-06-08T03:06:59.484Z,10.60
2019-06-08T03:09:30.692Z,12.10
2019-06-08T03:12:06.465Z,11.12
2019-06-08T03:14:37.574Z,11.60
2019-06-08T03:17:08.250Z,12.05
2019-06-08T03:19:39.885Z,12.95
2019-06-08T03:22:11.093Z,12.50
2019-06-08T03:24:41.668Z,11.57
2019-06-08T03:27:13.190Z,11.88
2019-06-08T03:29:43.959Z,12.47
2019-06-08T03:32:14.335Z,11.93
2019-06-08T03:34:53.953Z,13.15
2019-06-08T03:37:16.012Z,13.05
2019-06-08T03:39:46.149Z,12.05
2019-06-08T03:42:17.173Z,11.97
2019-06-08T03:44:47.204Z,12.70
2019-06-08T03:47:17.262Z,14.18
2019-06-08T03:49:54.518Z,12.33
2019-06-08T03:52:19.036Z,12.35
2019-06-08T03:54:49.070Z,11.97
2019-06-08T03:57:19.119Z,13.18
2019-06-08T03:59:49.154Z,12.98
2019-06-08T04:02:19.349Z,13.85
2019-06-08T04:04:50.027Z,12.20
2019-06-08T04:07:20.157Z,11.85
2019-06-08T04:09:50.575Z,12.82
2019-06-08T04:12:20.601Z,12.45
2019-06-08T04:14:50.648Z,13.10
2019-06-08T04:17:20.773Z,12.90
2019-06-08T04:20:09.425Z,12.53
2019-06-08T04:22:22.573Z,12.80
2019-06-08T04:24:52.683Z,13.68
2019-06-08T04:27:22.728Z,12.58
2019-06-08T04:29:52.766Z,12.33
2019-06-08T04:32:23.892Z,12.47
2019-06-08T04:34:53.940Z,13.18
2019-06-08T04:37:24.011Z,12.15
2019-06-08T04:39:54.050Z,12.23
2019-06-08T04:42:24.486Z,11.97
2019-06-08T04:44:54.921Z,13.38
2019-06-08T04:47:25.389Z,11.95
2019-06-08T04:49:55.863Z,11.75
2019-06-08T04:52:26.118Z,12.40
2019-06-08T04:54:56.281Z,11.57
2019-06-08T04:57:26.322Z,12.20
2019-06-08T04:59:56.434Z,12.95
2019-06-08T05:02:26.539Z,11.90
2019-06-08T05:04:56.578Z,12.63
2019-06-08T05:07:26.632Z,14.03
2019-06-08T05:09:57.025Z,12.98
2019-06-08T05:12:27.072Z,14.53
2019-06-08T05:14:57.479Z,15.72
2019-06-08T05:17:27.582Z,16.97
2019-06-08T05:19:57.953Z,16.07
2019-06-08T05:22:27.999Z,17.07
2019-06-08T05:24:58.502Z,14.03
2019-06-08T05:27:30.225Z,14.47
2019-06-08T05:30:00.282Z,16.00
2019-06-08T05:32:30.322Z,16.23
2019-06-08T05:35:00.354Z,13.83
2019-06-08T05:37:30.808Z,14.15
2019-06-08T05:40:00.846Z,15.63
2019-06-08T05:42:30.898Z,16.87
2019-06-08T05:45:00.951Z,13.75
2019-06-08T05:47:30.986Z,15.50
2019-06-08T05:50:01.371Z,13.40
2019-06-08T05:52:31.831Z,13.62
2019-06-08T05:55:01.950Z,12.43
2019-06-08T05:57:32.061Z,13.62
2019-06-08T06:00:08.875Z,13.72
2019-06-08T06:02:33.788Z,14.70
2019-06-08T06:05:05.788Z,13.75
2019-06-08T06:07:35.930Z,13.15
2019-06-08T06:10:06.226Z,12.03
2019-06-08T06:12:36.271Z,12.82
2019-06-08T06:15:07.061Z,9.18
2019-06-08T06:17:37.401Z,9.85
2019-06-08T06:20:09.346Z,11.10
2019-06-08T06:22:39.402Z,11.60
2019-06-08T06:25:10.395Z,12.53
2019-06-08T06:27:41.367Z,12.95
2019-06-08T06:30:12.327Z,12.58
2019-06-08T06:32:43.720Z,11.48
2019-06-08T06:35:14.257Z,13.08
2019-06-08T06:37:44.398Z,11.43
2019-06-08T06:40:15.856Z,11.68
2019-06-08T06:42:46.013Z,13.40
2019-06-08T06:45:16.421Z,12.18
2019-06-08T06:47:46.572Z,10.98
2019-06-08T06:50:17.181Z,12.55
2019-06-08T06:52:48.508Z,13.05
2019-06-08T06:55:19.027Z,14.13
2019-06-08T06:57:49.488Z,13.50
2019-06-08T07:00:30.645Z,11.78
2019-06-08T07:03:01.695Z,11.90
2019-06-08T07:05:32.122Z,11.20
2019-06-08T07:08:02.206Z,9.88
2019-06-08T07:10:32.238Z,12.58
2019-06-08T07:13:02.379Z,8.38
2019-06-08T07:15:41.182Z,9.48
2019-06-08T07:18:04.492Z,11.35
2019-06-08T07:20:34.607Z,12.78
2019-06-08T07:23:05.026Z,11.10
2019-06-08T07:25:35.055Z,11.55
2019-06-08T07:28:05.250Z,10.95
2019-06-08T07:30:35.692Z,11.70
2019-06-08T07:33:05.739Z,12.75
2019-06-08T07:35:35.855Z,11.95
2019-06-08T07:38:06.123Z,10.93
2019-06-08T07:40:36.218Z,13.72
2019-06-08T07:43:06.361Z,11.45
2019-06-08T07:45:36.859Z,11.65
2019-06-08T07:48:07.074Z,11.00
2019-06-08T07:50:37.572Z,11.73
2019-06-08T07:53:07.662Z,10.68
2019-06-08T07:55:37.695Z,10.08
2019-06-08T07:58:08.127Z,10.72
2019-06-08T08:00:38.180Z,10.68
2019-06-08T08:03:08.229Z,10.85
2019-06-08T08:05:38.698Z,10.38
2019-06-08T08:08:08.878Z,10.05
2019-06-08T08:10:38.917Z,10.58
2019-06-08T08:13:09.106Z,10.05
2019-06-08T08:15:39.228Z,13.32
2019-06-08T08:18:09.266Z,11.53
2019-06-08T08:20:39.710Z,12.88
2019-06-08T08:23:09.758Z,11.70
2019-06-08T08:25:40.952Z,11.18
2019-06-08T08:28:10.988Z,11.95
2019-06-08T08:30:41.036Z,10.15
2019-06-08T08:33:11.444Z,9.60
2019-06-08T08:35:41.545Z,9.50
2019-06-08T08:38:11.589Z,10.80
2019-06-08T08:40:42.879Z,11.53
2019-06-08T08:43:12.993Z,10.23
2019-06-08T08:45:43.351Z,9.35
2019-06-08T08:48:24.555Z,10.98
2019-06-08T08:50:45.066Z,10.40
2019-06-08T08:53:15.118Z,10.05
2019-06-08T08:55:47.936Z,10.32
2019-06-08T08:58:19.106Z,10.35
2019-06-08T09:00:50.927Z,9.83
2019-06-08T09:03:28.703Z,10.55
2019-06-08T09:05:53.802Z,11.00
2019-06-08T09:08:24.721Z,11.50
2019-06-08T09:10:56.104Z,10.10
2019-06-08T09:13:28.121Z,9.58
2019-06-08T09:16:02.352Z,9.93
2019-06-08T09:18:30.856Z,10.28
2019-06-08T09:21:02.806Z,10.55
2019-06-08T09:23:33.087Z,10.32
2019-06-08T09:26:08.943Z,10.45
2019-06-08T09:28:35.311Z,9.35
2019-06-08T09:31:08.261Z,11.15
2019-06-08T09:33:38.850Z,10.00
2019-06-08T09:36:09.185Z,10.35
2019-06-08T09:38:39.220Z,10.50
2019-06-08T09:41:09.348Z,11.43
2019-06-08T09:43:39.383Z,12.30
2019-06-08T09:46:09.602Z,10.55
2019-06-08T09:48:39.843Z,9.38
2019-06-08T09:51:09.981Z,9.45
2019-06-08T09:53:41.631Z,9.93
2019-06-08T09:56:12.434Z,11.90
2019-06-08T09:58:42.494Z,12.82
2019-06-08T10:01:12.843Z,11.30
2019-06-08T10:03:42.889Z,11.85
2019-06-08T10:06:13.315Z,9.13
2019-06-08T10:08:43.750Z,9.50
2019-06-08T10:11:13.783Z,8.90
2019-06-08T10:13:43.871Z,11.43
2019-06-08T10:16:14.222Z,9.65
2019-06-08T10:18:44.257Z,9.78
2019-06-08T10:21:14.369Z,9.85
2019-06-08T10:23:44.481Z,8.75
2019-06-08T10:26:14.600Z,9.93
2019-06-08T10:28:45.010Z,9.45
2019-06-08T10:31:17.460Z,9.28
2019-06-08T10:33:48.190Z,10.38
2019-06-08T10:36:18.482Z,8.50
2019-06-08T10:38:48.579Z,9.15
2019-06-08T10:41:21.737Z,8.78
2019-06-08T10:43:50.365Z,8.30
2019-06-08T10:46:21.108Z,8.75
2019-06-08T10:48:51.277Z,7.28
2019-06-08T10:51:21.725Z,7.65
2019-06-08T10:53:53.248Z,8.70
2019-06-08T10:56:23.436Z,9.98
2019-06-08T10:58:53.477Z,8.08
2019-06-08T11:01:23.544Z,9.33
2019-06-08T11:03:53.685Z,9.10
2019-06-08T11:06:24.180Z,9.05
2019-06-08T11:08:54.365Z,9.33
2019-06-08T11:11:24.749Z,8.30
2019-06-08T11:13:57.834Z,7.92
2019-06-08T11:16:28.714Z,8.68
2019-06-08T11:19:00.430Z,7.87
2019-06-08T11:21:30.393Z,9.20
2019-06-08T11:24:07.623Z,7.72
2019-06-08T11:26:32.576Z,8.85
2019-06-08T11:29:02.993Z,8.18
2019-06-08T11:31:33.738Z,8.30
2019-06-08T11:34:04.057Z,8.65
2019-06-08T11:36:34.295Z,8.23
2019-06-08T11:39:09.097Z,7.80
2019-06-08T11:41:38.158Z,9.93
2019-06-08T11:44:12.514Z,9.65
2019-06-08T11:46:42.600Z,9.68
2019-06-08T11:49:14.841Z,9.20
2019-06-08T11:51:43.703Z,9.35
2019-06-08T11:54:31.002Z,9.15
2019-06-08T11:56:48.098Z,13.72
2019-06-08T11:59:18.931Z,11.50
2019-06-08T12:01:50.514Z,9.88
2019-06-08T12:04:20.704Z,11.18
2019-06-08T12:06:50.784Z,10.10
2019-06-08T12:09:20.841Z,9.83
2019-06-08T12:11:51.256Z,9.65
2019-06-08T12:14:21.292Z,8.03
2019-06-08T12:16:51.343Z,8.08
2019-06-08T12:19:21.394Z,9.08
2019-06-08T12:21:51.843Z,7.75
2019-06-08T12:24:21.882Z,8.03
2019-06-08T12:26:58.658Z,9.28
2019-06-08T12:29:23.662Z,8.85
2019-06-08T12:31:53.702Z,9.03
2019-06-08T12:34:23.777Z,8.38
2019-06-08T12:36:53.816Z,8.78
2019-06-08T12:39:23.861Z,8.45
2019-06-08T12:41:53.910Z,9.18
2019-06-08T12:44:26.179Z,8.40
2019-06-08T12:46:55.614Z,8.50
2019-06-08T12:49:25.650Z,8.38
2019-06-08T12:51:58.102Z,7.95
2019-06-08T12:54:28.369Z,9.08
2019-06-08T12:57:00.759Z,8.70
2019-06-08T12:59:30.210Z,9.08
2019-06-08T13:02:00.257Z,9.38
2019-06-08T13:04:30.299Z,7.55
2019-06-08T13:07:00.758Z,7.90
2019-06-08T13:09:30.792Z,7.70
2019-06-08T13:12:00.843Z,8.20
2019-06-08T13:14:30.958Z,8.15
2019-06-08T13:17:01.343Z,9.23
2019-06-08T13:19:32.549Z,8.93
2019-06-08T13:22:02.674Z,8.03
2019-06-08T13:24:32.785Z,7.78
2019-06-08T13:27:02.819Z,8.75
2019-06-08T13:29:33.271Z,8.18
2019-06-08T13:32:03.805Z,8.23
2019-06-08T13:34:33.842Z,9.58
2019-06-08T13:37:03.880Z,8.70
2019-06-08T13:39:33.998Z,9.13
2019-06-08T13:42:04.179Z,8.00
2019-06-08T13:44:34.606Z,7.90
2019-06-08T13:47:04.708Z,7.65
2019-06-08T13:49:35.059Z,7.20
2019-06-08T13:52:07.785Z,8.18
2019-06-08T13:54:38.178Z,8.03
2019-06-08T13:57:08.633Z,8.98
2019-06-08T13:59:39.083Z,8.00
2019-06-08T14:02:10.558Z,7.62
2019-06-08T14:04:40.748Z,7.97
2019-06-08T14:07:10.791Z,8.05
2019-06-08T14:09:41.231Z,7.12
2019-06-08T14:12:11.265Z,7.62
2019-06-08T14:14:41.386Z,7.95
2019-06-08T14:17:11.498Z,6.10
2019-06-08T14:19:41.911Z,7.20
2019-06-08T14:22:12.005Z,7.20
2019-06-08T14:24:42.060Z,6.72
2019-06-08T14:27:12.171Z,7.25
2019-06-08T14:29:42.281Z,6.50
2019-06-08T14:32:12.723Z,6.83
2019-06-08T14:34:42.837Z,7.45
2019-06-08T14:37:12.893Z,6.87
2019-06-08T14:39:43.377Z,6.00
2019-06-08T14:42:13.807Z,7.25
2019-06-08T14:44:43.922Z,6.40
2019-06-08T14:47:14.372Z,6.90
2019-06-08T14:49:45.669Z,6.58
2019-06-08T14:52:15.845Z,6.22
2019-06-08T14:54:48.182Z,6.90
2019-06-08T14:57:18.191Z,6.08
2019-06-08T14:59:50.334Z,6.95
2019-06-08T15:02:21.236Z,6.25
2019-06-08T15:04:51.363Z,6.40
2019-06-08T15:07:23.297Z,6.90
2019-06-08T15:09:53.062Z,6.20
2019-06-08T15:12:23.543Z,6.25
2019-06-08T15:14:55.031Z,5.90
2019-06-08T15:17:26.493Z,5.72
2019-06-08T15:19:58.561Z,5.75
2019-06-08T15:22:30.554Z,5.30
2019-06-08T15:25:00.696Z,5.17
2019-06-08T15:27:33.221Z,5.03
2019-06-08T15:30:02.463Z,5.28
2019-06-08T15:32:35.513Z,5.62
2019-06-08T15:35:08.156Z,5.40
2019-06-08T15:37:40.954Z,5.10
2019-06-08T15:40:10.712Z,4.65
2019-06-08T15:42:41.814Z,5.75
2019-06-08T15:45:12.509Z,5.00
2019-06-08T15:47:42.546Z,5.08
2019-06-08T15:50:12.791Z,5.20
2019-06-08T15:52:43.089Z,5.25
2019-06-08T15:55:13.201Z,5.17
2019-06-08T15:57:44.854Z,5.15
2019-06-08T16:00:18.484Z,5.03
2019-06-08T16:02:48.661Z,5.72
2019-06-08T16:05:18.999Z,5.12
2019-06-08T16:07:50.513Z,5.85
2019-06-08T16:10:20.538Z,4.78
2019-06-08T16:12:51.644Z,4.62
2019-06-08T16:15:21.688Z,4.83
2019-06-08T16:17:51.795Z,4.53
2019-06-08T16:20:21.826Z,4.37
2019-06-08T16:22:51.862Z,4.62
2019-06-08T16:25:21.885Z,6.03
2019-06-08T16:27:51.930Z,5.17
2019-06-08T16:30:22.445Z,4.75
2019-06-08T16:32:52.486Z,5.25
2019-06-08T16:35:22.590Z,4.33
2019-06-08T16:37:52.636Z,4.92
2019-06-08T16:40:22.674Z,4.50
2019-06-08T16:42:53.042Z,5.20
2019-06-08T16:45:23.142Z,4.80
2019-06-08T16:47:53.241Z,5.70
2019-06-08T16:50:24.707Z,5.33
2019-06-08T16:52:55.371Z,4.87
2019-06-08T16:55:25.471Z,5.33
2019-06-08T16:57:55.521Z,4.97
2019-06-08T17:00:37.138Z,4.65
2019-06-08T17:02:57.416Z,5.25
2019-06-08T17:05:27.425Z,5.08
2019-06-08T17:07:57.665Z,4.47
2019-06-08T17:10:27.664Z,4.97
2019-06-08T17:12:57.724Z,4.90
2019-06-08T17:15:27.843Z,5.05
2019-06-08T17:17:57.947Z,5.33
2019-06-08T17:20:28.055Z,4.90
2019-06-08T17:22:58.088Z,5.53
2019-06-08T17:25:28.179Z,5.00
2019-06-08T17:27:58.219Z,5.20
2019-06-08T17:30:28.268Z,5.33
2019-06-08T17:32:58.313Z,5.67
2019-06-08T17:35:28.741Z,4.92
2019-06-08T17:37:58.775Z,4.95
2019-06-08T17:40:28.955Z,5.03
2019-06-08T17:42:58.988Z,5.22
2019-06-08T17:45:29.327Z,5.90
2019-06-08T17:47:59.361Z,5.72
2019-06-08T17:50:29.470Z,5.22
2019-06-08T17:52:59.988Z,5.53
2019-06-08T17:55:30.339Z,6.35
2019-06-08T17:58:00.442Z,5.80
2019-06-08T18:00:30.566Z,5.30
2019-06-08T18:03:00.990Z,6.22
2019-06-08T18:05:32.206Z,5.83
2019-06-08T18:08:02.657Z,5.83
2019-06-08T18:10:33.759Z,6.05
2019-06-08T18:13:04.052Z,7.00
2019-06-08T18:15:34.119Z,7.55
2019-06-08T18:18:04.670Z,7.92
2019-06-08T18:20:36.863Z,7.80
2019-06-08T18:23:08.140Z,7.70
2019-06-08T18:25:40.251Z,7.33
2019-06-08T18:28:13.305Z,8.13
2019-06-08T18:30:44.710Z,7.33
2019-06-08T18:33:13.850Z,7.35
2019-06-08T18:35:44.893Z,6.67
2019-06-08T18:38:17.774Z,6.42
2019-06-08T18:40:48.388Z,6.15
2019-06-08T18:43:18.984Z,6.30
2019-06-08T18:45:49.977Z,5.45
2019-06-08T18:48:20.084Z,6.28
2019-06-08T18:50:51.275Z,5.30
2019-06-08T18:53:21.321Z,5.95
2019-06-08T18:55:51.425Z,6.60
2019-06-08T18:58:24.977Z,6.40
2019-06-08T19:00:53.814Z,6.10
2019-06-08T19:03:24.339Z,6.10
2019-06-08T19:05:54.443Z,7.15
2019-06-08T19:08:27.851Z,6.25
2019-06-08T19:10:57.972Z,6.37
2019-06-08T19:13:28.605Z,6.30
2019-06-08T19:15:59.894Z,6.37
2019-06-08T19:18:30.054Z,6.40
2019-06-08T19:21:00.081Z,6.35
2019-06-08T19:23:30.119Z,6.35
2019-06-08T19:26:00.510Z,6.95
2019-06-08T19:28:36.398Z,6.47
2019-06-08T19:31:02.811Z,6.75
2019-06-08T19:33:33.366Z,6.78
2019-06-08T19:36:03.545Z,7.35
2019-06-08T19:38:33.895Z,6.90
2019-06-08T19:41:04.010Z,6.50
2019-06-08T19:43:34.406Z,6.50
2019-06-08T19:46:07.093Z,6.80
2019-06-08T19:48:39.243Z,6.40
2019-06-08T19:51:08.701Z,6.42
2019-06-08T19:53:44.402Z,6.80
2019-06-08T19:56:11.454Z,7.30
2019-06-08T19:58:55.393Z,8.13
2019-06-08T20:01:13.159Z,6.62
2019-06-08T20:03:43.185Z,6.62
2019-06-08T20:06:14.368Z,7.08
2019-06-08T20:08:45.103Z,8.13
2019-06-08T20:11:17.189Z,5.85
2019-06-08T20:13:49.703Z,6.67
2019-06-08T20:19:24.537Z,6.80
2019-06-08T20:21:54.579Z,6.87
2019-06-08T20:24:24.609Z,7.10
2019-06-08T20:26:54.843Z,7.03
2019-06-08T20:29:27.941Z,7.60
2019-06-08T20:31:58.233Z,7.30
2019-06-08T20:34:28.384Z,8.10
2019-06-08T20:37:01.301Z,6.83
2019-06-08T20:39:30.436Z,7.20
2019-06-08T20:42:00.461Z,7.30
2019-06-08T20:44:30.509Z,6.58
2019-06-08T20:47:00.899Z,6.80
2019-06-08T20:49:30.927Z,6.53
2019-06-08T20:52:01.038Z,7.00
2019-06-08T20:54:31.088Z,7.50
2019-06-08T20:57:01.686Z,7.03
2019-06-08T20:59:34.217Z,7.50
2019-06-08T21:02:03.840Z,7.45
2019-06-08T21:04:33.873Z,7.15
2019-06-08T21:07:03.971Z,7.10
2019-06-08T21:09:34.008Z,7.00
2019-06-08T21:12:04.213Z,6.83
2019-06-08T21:14:34.256Z,7.12
2019-06-08T21:17:04.295Z,6.95
2019-06-08T21:19:35.397Z,6.65
2019-06-08T21:22:08.021Z,6.22
2019-06-08T21:24:37.268Z,7.25
2019-06-08T21:27:08.212Z,6.40
2019-06-08T21:29:47.746Z,6.20
2019-06-08T21:32:12.005Z,6.22
2019-06-08T21:34:42.382Z,6.08
2019-06-08T21:37:12.414Z,6.85
2019-06-08T21:39:42.462Z,6.62
2019-06-08T21:42:12.569Z,7.00
2019-06-08T21:44:42.615Z,6.85
2019-06-08T21:47:13.085Z,6.95
2019-06-08T21:49:43.187Z,7.03
2019-06-08T21:52:13.635Z,6.95
2019-06-08T21:54:43.679Z,7.12
2019-06-08T21:57:13.792Z,7.10
2019-06-08T21:59:43.826Z,7.05
2019-06-08T22:02:14.015Z,6.70
2019-06-08T22:04:44.115Z,6.70
2019-06-08T22:07:14.298Z,7.40
2019-06-08T22:09:44.343Z,9.45
2019-06-08T22:12:14.385Z,7.50
2019-06-08T22:14:44.445Z,8.03
2019-06-08T22:17:16.023Z,7.62
2019-06-08T22:19:47.464Z,8.93
2019-06-08T22:22:18.699Z,7.50
2019-06-08T22:24:48.738Z,7.25
2019-06-08T22:27:18.791Z,7.70
2019-06-08T22:29:48.828Z,7.97
2019-06-08T22:32:18.872Z,8.20
2019-06-08T22:34:48.902Z,7.58
2019-06-08T22:37:19.971Z,8.10
2019-06-08T22:39:51.089Z,7.65
2019-06-08T22:42:21.565Z,8.50
2019-06-08T22:44:52.757Z,8.23
2019-06-08T22:47:22.918Z,8.55
2019-06-08T22:49:54.657Z,8.43
2019-06-08T22:52:27.201Z,7.15
2019-06-08T22:55:02.074Z,8.33
2019-06-08T22:57:28.831Z,7.72
2019-06-08T23:00:01.641Z,8.85
2019-06-08T23:02:30.623Z,8.50
2019-06-08T23:05:03.812Z,7.83
2019-06-08T23:07:32.926Z,8.70
2019-06-08T23:10:05.715Z,8.70
2019-06-08T23:12:38.200Z,8.50
2019-06-08T23:15:08.446Z,8.53
2019-06-08T23:17:39.143Z,8.50
2019-06-08T23:20:09.841Z,7.92
2019-06-08T23:22:39.885Z,8.50
2019-06-08T23:25:10.138Z,8.68
2019-06-08T23:27:40.167Z,8.85
2019-06-08T23:30:10.851Z,8.60
2019-06-08T23:32:41.025Z,9.13
2019-06-08T23:35:11.200Z,8.83
2019-06-08T23:37:41.244Z,9.08
2019-06-08T23:40:12.814Z,9.05
2019-06-08T23:42:42.845Z,8.53
2019-06-08T23:45:13.123Z,8.70
2019-06-08T23:47:43.521Z,8.80
2019-06-08T23:50:13.893Z,8.53
2019-06-08T23:52:43.956Z,8.43
2019-06-08T23:55:14.131Z,8.68
2019-06-08T23:57:44.618Z,8.95
